Time;durP1;ratioP1;P1;durP2;ratioP2;P2;SDS_P1;SDS_P2;PMS_P1;PMS_P2;Temp;Humidity;BMP_temperature;BMP_pressure;BME280_temperature;BME280_humidity;BME280_pressure;Samples;Min_cycle;Max_cycle;Signal;HPM_P1;HPM_P2
2021/07/27 00:01:31;;;;;;;2.63;2.43;;;24.20;99.90;;;;;;5037925;28;20480;-83
2021/07/27 00:03:59;;;;;;;2.93;2.70;;;24.20;99.90;;;;;;5036578;28;20823;-83
2021/07/27 00:06:26;;;;;;;2.30;2.10;;;24.20;99.90;;;;;;5043492;28;20466;-82
2021/07/27 00:08:53;;;;;;;2.47;2.27;;;24.20;99.90;;;;;;5055945;28;20442;-82
2021/07/27 00:11:20;;;;;;;2.23;2.03;;;24.20;99.90;;;;;;5047016;28;20469;-82
2021/07/27 00:13:46;;;;;;;2.57;2.37;;;24.20;99.90;;;;;;5073844;28;20441;-82
2021/07/27 00:16:13;;;;;;;2.87;2.67;;;24.20;99.90;;;;;;5058292;28;20446;-83
2021/07/27 00:18:40;;;;;;;3.40;2.60;;;24.10;99.90;;;;;;5044567;28;20477;-81
2021/07/27 00:21:08;;;;;;;2.30;2.10;;;24.10;99.90;;;;;;5052831;28;20961;-82
2021/07/27 00:23:35;;;;;;;3.03;2.40;;;24.10;99.90;;;;;;5055658;28;20450;-82
2021/07/27 00:26:04;;;;;;;3.03;2.60;;;24.10;99.90;;;;;;5056472;28;20474;-82
2021/07/27 00:28:31;;;;;;;3.07;2.40;;;24.10;99.90;;;;;;5035887;28;20486;-82
2021/07/27 00:30:58;;;;;;;2.07;1.90;;;24.10;99.90;;;;;;5048653;28;20458;-82
2021/07/27 00:33:25;;;;;;;2.80;2.60;;;24.10;99.90;;;;;;5061712;28;20464;-83
2021/07/27 00:35:52;;;;;;;2.73;2.43;;;24.00;99.90;;;;;;5056116;28;20933;-82
2021/07/27 00:38:21;;;;;;;2.37;2.17;;;24.00;99.90;;;;;;5055972;28;20465;-82
2021/07/27 00:40:48;;;;;;;2.17;1.97;;;24.00;99.90;;;;;;5052280;28;20468;-81
2021/07/27 00:43:17;;;;;;;2.30;2.10;;;24.00;99.90;;;;;;5076230;28;20460;-82
2021/07/27 00:45:44;;;;;;;2.50;2.30;;;24.00;99.90;;;;;;5054083;28;20533;-82
2021/07/27 00:48:11;;;;;;;2.10;1.90;;;23.90;99.90;;;;;;5049919;28;20462;-83
2021/07/27 00:50:38;;;;;;;2.40;2.20;;;23.90;99.90;;;;;;5048711;28;20942;-82
2021/07/27 00:53:06;;;;;;;2.67;2.40;;;23.90;99.90;;;;;;5040409;28;20462;-82
2021/07/27 00:55:35;;;;;;;2.33;2.13;;;23.90;99.90;;;;;;5043652;28;20447;-82
2021/07/27 00:58:02;;;;;;;2.53;2.33;;;23.90;99.90;;;;;;5047192;28;20462;-82
2021/07/27 01:00:29;;;;;;;2.00;1.90;;;23.90;99.90;;;;;;5048752;28;20483;-81
2021/07/27 01:02:56;;;;;;;3.30;3.00;;;23.80;99.90;;;;;;5037850;28;20469;-82
2021/07/27 01:05:24;;;;;;;2.03;1.93;;;23.80;99.90;;;;;;5057191;28;20448;-81
2021/07/27 01:07:51;;;;;;;2.47;2.27;;;23.80;99.90;;;;;;5055975;28;20899;-82
2021/07/27 01:10:19;;;;;;;2.90;2.70;;;23.80;99.90;;;;;;5067982;28;20469;-82
2021/07/27 01:12:49;;;;;;;2.87;2.67;;;23.80;99.90;;;;;;5068543;28;20790;-82
2021/07/27 01:15:16;;;;;;;3.47;2.70;;;23.80;99.90;;;;;;5035546;28;20443;-82
2021/07/27 01:17:44;;;;;;;2.37;2.17;;;23.80;99.90;;;;;;5051372;28;20465;-82
2021/07/27 01:20:18;;;;;;;2.30;2.10;;;23.70;99.90;;;;;;5049818;28;21082;-82
2021/07/27 01:39:22;;;;;;;3.13;2.37;;;23.60;99.90;;;;;;5048931;28;20489;-83
2021/07/27 01:42:08;;;;;;;2.57;2.37;;;23.60;99.90;;;;;;5039551;28;20485;-82
2021/07/27 01:44:42;;;;;;;2.97;2.47;;;23.60;99.90;;;;;;5045426;28;20465;-82
2021/07/27 01:47:09;;;;;;;2.63;2.43;;;23.60;99.90;;;;;;5044159;28;20458;-82
2021/07/27 01:49:36;;;;;;;3.00;2.73;;;23.50;99.90;;;;;;5048454;28;20461;-82
2021/07/27 01:52:03;;;;;;;3.30;3.10;;;23.50;99.90;;;;;;5047989;28;20466;-82
2021/07/27 01:54:40;;;;;;;3.63;3.10;;;23.50;99.90;;;;;;5049260;28;20462;-82
2021/07/27 01:57:10;;;;;;;2.60;2.40;;;23.50;99.90;;;;;;5048498;28;20516;-83
2021/07/27 01:59:37;;;;;;;3.10;2.47;;;23.50;99.90;;;;;;5047605;28;21555;-82
2021/07/27 02:02:05;;;;;;;3.23;2.90;;;23.50;99.90;;;;;;5048238;28;20957;-82
2021/07/27 02:04:32;;;;;;;2.77;2.57;;;23.40;99.90;;;;;;5051379;28;20462;-82
2021/07/27 02:06:59;;;;;;;3.40;3.03;;;23.40;99.90;;;;;;5048315;28;20463;-81
2021/07/27 02:09:26;;;;;;;3.23;2.93;;;23.40;99.90;;;;;;5045139;28;20505;-82
2021/07/27 02:11:59;;;;;;;2.83;2.63;;;23.40;99.90;;;;;;5051307;28;21001;-82
2021/07/27 02:15:02;;;;;;;2.80;2.60;;;23.40;99.90;;;;;;5045796;28;20450;-83
2021/07/27 02:17:13;;;;;;;3.10;2.80;;;23.40;99.90;;;;;;5049597;28;20458;-82
2021/07/27 02:19:40;;;;;;;3.10;2.80;;;23.40;99.90;;;;;;5043790;28;20482;-82
2021/07/27 02:22:07;;;;;;;2.90;2.70;;;23.40;99.90;;;;;;5050962;28;20467;-80
2021/07/27 02:24:34;;;;;;;3.57;3.13;;;23.40;99.90;;;;;;5050058;28;20455;-81
2021/07/27 02:27:02;;;;;;;3.20;2.90;;;23.30;99.90;;;;;;5047421;28;20960;-80
2021/07/27 02:29:29;;;;;;;2.83;2.63;;;23.30;99.90;;;;;;5047915;28;20450;-81
2021/07/27 02:31:56;;;;;;;2.90;2.60;;;23.30;99.90;;;;;;5053137;28;20458;-81
2021/07/27 02:34:22;;;;;;;2.80;2.60;;;23.30;99.90;;;;;;5050959;28;20455;-81
2021/07/27 02:36:49;;;;;;;6.70;2.93;;;23.30;99.90;;;;;;5038302;28;20450;-82
2021/07/27 02:39:16;;;;;;;2.93;2.53;;;23.30;99.90;;;;;;5041617;28;20482;-81
2021/07/27 02:41:42;;;;;;;3.17;2.87;;;23.30;99.90;;;;;;5058498;28;20434;-81
2021/07/27 02:44:11;;;;;;;3.33;3.03;;;23.20;99.90;;;;;;5057725;28;20466;-82
2021/07/27 02:46:37;;;;;;;2.47;2.27;;;23.20;99.90;;;;;;5069308;28;20948;-82
2021/07/27 02:49:04;;;;;;;2.60;2.40;;;23.20;99.90;;;;;;5076964;28;20449;-81
2021/07/27 02:51:31;;;;;;;3.67;2.47;;;23.20;99.90;;;;;;5051593;28;20462;-81
2021/07/27 02:53:59;;;;;;;2.75;2.53;;;23.20;99.90;;;;;;5041609;28;20454;-82
2021/07/27 02:56:27;;;;;;;2.87;2.67;;;23.20;99.90;;;;;;5069978;28;20207;-81
2021/07/27 02:58:53;;;;;;;3.40;2.60;;;23.20;99.90;;;;;;5045334;28;20466;-81
2021/07/27 03:01:21;;;;;;;3.30;3.00;;;23.10;99.90;;;;;;5047902;28;20535;-81
2021/07/27 03:03:49;;;;;;;4.87;2.80;;;23.10;99.90;;;;;;5042632;28;20959;-81
2021/07/27 03:06:18;;;;;;;2.57;2.37;;;23.10;99.90;;;;;;5048155;28;20861;-81
2021/07/27 03:09:03;;;;;;;2.80;2.60;;;23.10;99.90;;;;;;5040785;28;20826;-82
2021/07/27 03:11:30;;;;;;;2.30;2.10;;;23.10;99.90;;;;;;5043150;28;20450;-80
2021/07/27 03:13:57;;;;;;;2.63;2.40;;;23.10;99.90;;;;;;5044556;28;20799;-81
2021/07/27 03:16:26;;;;;;;3.10;2.90;;;23.10;99.90;;;;;;5051326;28;20446;-80
2021/07/27 03:18:53;;;;;;;2.40;2.00;;;23.00;99.90;;;;;;5042680;28;20469;-82
2021/07/27 03:21:21;;;;;;;2.90;2.70;;;23.00;99.90;;;;;;5047278;28;20477;-81
2021/07/27 03:23:48;;;;;;;2.97;2.77;;;23.00;99.90;;;;;;5042778;28;20453;-82
2021/07/27 03:26:15;;;;;;;3.00;2.70;;;23.00;99.90;;;;;;5044915;28;21054;-82
2021/07/27 03:28:42;;;;;;;3.30;2.80;;;23.00;99.90;;;;;;5039506;28;20487;-82
2021/07/27 03:31:08;;;;;;;3.77;2.67;;;22.90;99.90;;;;;;5045588;28;20465;-81
2021/07/27 03:33:37;;;;;;;3.70;2.67;;;23.00;99.90;;;;;;5044865;28;20470;-82
2021/07/27 03:36:05;;;;;;;3.30;3.00;;;22.90;99.90;;;;;;5048960;28;20466;-82
2021/07/27 03:38:32;;;;;;;3.07;2.77;;;22.90;99.90;;;;;;5043745;28;20454;-81
2021/07/27 03:41:04;;;;;;;3.00;2.75;;;22.90;99.90;;;;;;5049448;28;20481;-81
2021/07/27 03:43:30;;;;;;;2.57;2.20;;;22.90;99.90;;;;;;5044335;28;20227;-81
2021/07/27 03:45:57;;;;;;;2.80;2.43;;;22.90;99.90;;;;;;5047534;28;20469;-81
2021/07/27 03:48:24;;;;;;;3.60;3.30;;;22.80;99.90;;;;;;5047924;28;20825;-81
2021/07/27 03:50:52;;;;;;;3.17;2.88;;;22.80;99.90;;;;;;5041912;28;20192;-81
2021/07/27 03:53:20;;;;;;;3.67;3.10;;;22.80;99.90;;;;;;5042298;28;20210;-80
2021/07/27 03:55:47;;;;;;;4.07;3.22;;;22.80;99.90;;;;;;5047004;28;20520;-81
2021/07/27 03:58:13;;;;;;;3.08;2.85;;;22.80;99.90;;;;;;5042002;28;20211;-81
2021/07/27 04:00:40;;;;;;;3.58;3.25;;;22.80;99.90;;;;;;5046613;28;20238;-81
2021/07/27 04:03:07;;;;;;;3.72;3.40;;;22.70;99.90;;;;;;5050157;28;20196;-82
2021/07/27 04:05:34;;;;;;;4.60;3.15;;;22.70;99.90;;;;;;5056679;28;20212;-81
2021/07/27 04:08:02;;;;;;;4.40;3.95;;;22.70;99.90;;;;;;5055829;28;20195;-80
2021/07/27 04:10:29;;;;;;;3.53;3.20;;;22.60;99.90;;;;;;5048762;28;20200;-80
2021/07/27 04:12:56;;;;;;;3.97;3.67;;;22.60;99.90;;;;;;5046584;28;20825;-80
2021/07/27 04:15:43;;;;;;;3.77;3.47;;;22.60;99.90;;;;;;5072448;28;20643;-81
2021/07/27 04:18:10;;;;;;;4.25;3.85;;;22.50;99.90;;;;;;5063631;28;20469;-82
2021/07/27 04:20:37;;;;;;;4.18;3.83;;;22.50;99.90;;;;;;5055016;28;20227;-80
2021/07/27 04:23:05;;;;;;;4.07;3.78;;;22.50;99.90;;;;;;5036830;28;20264;-82
2021/07/27 04:25:33;;;;;;;3.90;3.60;;;22.50;99.90;;;;;;5040625;28;20217;-81
2021/07/27 04:28:00;;;;;;;4.35;3.90;;;22.50;99.90;;;;;;5044749;28;20246;-81
2021/07/27 04:30:27;;;;;;;4.35;3.95;;;22.50;99.90;;;;;;5038586;28;20200;-81
2021/07/27 04:32:54;;;;;;;4.05;3.65;;;22.40;99.90;;;;;;5045770;28;20206;-81
2021/07/27 04:35:20;;;;;;;4.30;3.90;;;22.40;99.90;;;;;;5053958;28;20202;-81
2021/07/27 04:37:47;;;;;;;4.47;4.05;;;22.40;99.90;;;;;;5041716;28;20667;-81
2021/07/27 04:40:15;;;;;;;4.25;3.90;;;22.40;99.90;;;;;;5039037;28;20224;-80
2021/07/27 04:42:43;;;;;;;5.13;4.45;;;22.40;99.90;;;;;;5046699;28;20218;-81
2021/07/27 04:45:10;;;;;;;5.28;4.18;;;22.40;99.90;;;;;;5050173;28;20205;-82
2021/07/27 04:47:37;;;;;;;5.85;4.35;;;22.40;99.90;;;;;;5041428;28;20200;-81
2021/07/27 04:50:04;;;;;;;5.30;4.80;;;22.40;99.90;;;;;;5044445;28;20196;-81
2021/07/27 04:52:31;;;;;;;4.43;4.03;;;22.40;99.90;;;;;;5045826;28;20207;-81
2021/07/27 04:54:58;;;;;;;6.15;5.55;;;22.40;99.90;;;;;;5038968;28;20804;-81
2021/07/27 04:57:26;;;;;;;4.73;4.30;;;22.40;99.90;;;;;;5041582;28;20206;-81
2021/07/27 04:59:53;;;;;;;4.20;3.80;;;22.40;99.90;;;;;;5041292;28;20486;-81
2021/07/27 05:02:20;;;;;;;5.43;5.03;;;22.40;99.90;;;;;;5040389;28;20192;-80
2021/07/27 05:04:47;;;;;;;5.65;4.38;;;22.40;99.90;;;;;;5046269;28;20457;-81
2021/07/27 05:07:14;;;;;;;4.80;4.27;;;22.40;99.90;;;;;;5038728;28;20525;-81
2021/07/27 05:09:41;;;;;;;4.10;3.80;;;22.30;99.90;;;;;;5055653;28;20454;-81
2021/07/27 05:12:08;;;;;;;4.80;4.40;;;22.30;99.90;;;;;;5065401;28;20662;-81
2021/07/27 05:14:36;;;;;;;5.80;5.20;;;22.30;99.90;;;;;;5038932;28;20295;-82
2021/07/27 05:17:07;;;;;;;5.25;4.75;;;22.30;99.90;;;;;;5051260;28;20203;-82
2021/07/27 05:19:34;;;;;;;6.18;5.57;;;22.30;99.90;;;;;;5046181;28;20200;-81
2021/07/27 05:22:01;;;;;;;6.63;4.63;;;22.30;99.90;;;;;;5040481;28;20227;-81
2021/07/27 05:24:27;;;;;;;4.70;4.30;;;22.30;99.90;;;;;;5048487;28;20195;-81
2021/07/27 05:26:54;;;;;;;4.82;4.45;;;22.30;99.90;;;;;;5074095;28;20563;-82
2021/07/27 05:29:21;;;;;;;5.13;4.63;;;22.30;99.90;;;;;;5067442;28;20235;-81
2021/07/27 05:31:49;;;;;;;6.23;5.63;;;22.30;99.90;;;;;;5058683;28;20547;-81
2021/07/27 05:34:16;;;;;;;5.40;4.90;;;22.30;99.90;;;;;;5055478;28;20808;-81
2021/07/27 05:36:42;;;;;;;5.32;4.82;;;22.20;99.90;;;;;;5039488;28;20204;-80
2021/07/27 05:39:09;;;;;;;6.65;6.05;;;22.20;99.90;;;;;;5061745;28;20207;-80
2021/07/27 05:41:37;;;;;;;5.40;4.90;;;22.30;99.90;;;;;;5052770;28;20226;-80
2021/07/27 05:44:03;;;;;;;5.97;5.47;;;22.20;99.90;;;;;;5047799;28;20200;-80
2021/07/27 05:46:31;;;;;;;5.75;5.25;;;22.20;99.90;;;;;;5047620;28;20215;-82
2021/07/27 05:49:00;;;;;;;8.00;7.13;;;22.30;99.90;;;;;;5049582;28;20531;-80
2021/07/27 05:51:27;;;;;;;7.45;6.25;;;22.30;99.90;;;;;;5043145;28;20296;-78
2021/07/27 05:53:53;;;;;;;6.43;5.25;;;22.30;99.90;;;;;;5040521;28;20791;-79
2021/07/27 05:56:20;;;;;;;7.68;6.78;;;22.30;99.90;;;;;;5045835;28;20222;-80
2021/07/27 05:58:47;;;;;;;7.50;6.80;;;22.30;99.90;;;;;;5042135;28;20211;-79
2021/07/27 06:01:13;;;;;;;7.55;6.53;;;22.30;99.90;;;;;;5043842;28;20204;-79
2021/07/27 06:03:40;;;;;;;7.35;6.68;;;22.30;99.90;;;;;;5047845;28;20203;-79
2021/07/27 06:06:08;;;;;;;7.40;6.70;;;22.30;99.90;;;;;;5042136;28;20208;-79
2021/07/27 06:08:35;;;;;;;6.40;5.85;;;22.30;99.90;;;;;;5048508;28;20202;-78
2021/07/27 06:11:05;;;;;;;7.03;6.32;;;22.20;99.90;;;;;;5043258;28;20253;-79
2021/07/27 06:13:32;;;;;;;6.90;6.20;;;22.20;99.90;;;;;;5045083;28;20232;-79
2021/07/27 06:16:03;;;;;;;7.53;6.83;;;22.20;99.90;;;;;;5057520;28;20953;-79
2021/07/27 06:18:30;;;;;;;9.07;7.03;;;22.20;99.90;;;;;;5053976;28;20493;-78
2021/07/27 06:20:56;;;;;;;7.07;6.47;;;22.20;99.90;;;;;;5040830;28;20473;-78
2021/07/27 06:23:25;;;;;;;7.22;6.55;;;22.30;99.90;;;;;;5037401;28;20246;-79
2021/07/27 06:25:51;;;;;;;6.47;5.53;;;22.20;99.90;;;;;;5046885;28;20187;-79
2021/07/27 06:28:18;;;;;;;7.07;6.47;;;22.30;99.90;;;;;;5058233;28;20481;-79
2021/07/27 06:30:45;;;;;;;6.37;5.77;;;22.50;99.90;;;;;;5063765;28;20446;-79
2021/07/27 06:33:11;;;;;;;7.30;5.87;;;22.60;99.90;;;;;;5056747;28;20446;-78
2021/07/27 06:35:38;;;;;;;5.93;5.30;;;22.90;99.90;;;;;;5073110;28;20449;-78
2021/07/27 06:38:05;;;;;;;9.87;5.60;;;23.10;99.90;;;;;;5062925;28;20448;-79
2021/07/27 06:40:33;;;;;;;6.57;6.07;;;23.30;99.90;;;;;;5057067;28;20469;-79
2021/07/27 06:43:00;;;;;;;5.90;5.40;;;23.50;99.90;;;;;;5057272;28;20446;-79
2021/07/27 06:45:26;;;;;;;6.23;5.63;;;23.70;99.90;;;;;;5057405;28;20446;-80
2021/07/27 06:47:53;;;;;;;6.53;5.93;;;23.90;99.90;;;;;;5064308;28;20441;-80
2021/07/27 06:50:20;;;;;;;6.53;5.93;;;24.00;99.90;;;;;;5077337;28;20442;-78
2021/07/27 06:52:46;;;;;;;5.57;5.03;;;24.10;99.90;;;;;;5072773;28;20458;-80
2021/07/27 06:55:13;;;;;;;6.60;6.00;;;24.20;99.90;;;;;;5050079;28;20471;-79
2021/07/27 06:57:41;;;;;;;7.70;5.67;;;24.30;99.90;;;;;;5064942;28;20461;-79
2021/07/27 07:00:09;;;;;;;6.33;5.80;;;24.40;99.90;;;;;;5057518;28;20446;-79
2021/07/27 07:02:36;;;;;;;6.93;6.27;;;24.50;99.90;;;;;;5056912;28;20445;-79
2021/07/27 07:05:03;;;;;;;6.90;6.20;;;24.50;99.90;;;;;;5059920;28;20453;-78
2021/07/27 07:07:29;;;;;;;6.90;6.27;;;24.60;99.90;;;;;;5076758;28;20459;-78
2021/07/27 07:09:56;;;;;;;5.83;5.33;;;24.60;99.90;;;;;;5076667;28;20436;-78
2021/07/27 07:12:26;;;;;;;7.20;6.60;;;24.70;99.90;;;;;;5064236;28;20456;-78
2021/07/27 07:14:57;;;;;;;6.67;6.07;;;24.80;99.90;;;;;;5062233;28;20452;-80
2021/07/27 07:17:23;;;;;;;7.23;6.60;;;24.90;99.90;;;;;;5070161;28;20465;-78
2021/07/27 07:19:51;;;;;;;7.80;6.73;;;25.00;99.90;;;;;;5074966;28;20936;-78
2021/07/27 07:22:18;;;;;;;7.90;7.00;;;25.00;99.90;;;;;;5070838;28;20834;-78
2021/07/27 07:24:45;;;;;;;6.87;6.33;;;25.00;99.90;;;;;;5055173;28;20537;-78
2021/07/27 07:27:12;;;;;;;7.23;6.60;;;25.00;99.90;;;;;;5055473;28;20450;-77
2021/07/27 07:29:39;;;;;;;7.67;6.97;;;25.00;99.90;;;;;;5055503;28;20447;-79
2021/07/27 07:32:07;;;;;;;7.67;7.07;;;25.00;99.90;;;;;;5055030;28;20446;-79
2021/07/27 07:34:34;;;;;;;7.63;6.97;;;25.00;99.90;;;;;;5055331;28;20453;-78
2021/07/27 07:37:03;;;;;;;8.53;6.97;;;25.00;99.90;;;;;;5055472;28;20449;-78
2021/07/27 07:39:31;;;;;;;7.10;6.40;;;24.90;99.90;;;;;;5056352;28;20458;-78
2021/07/27 07:41:59;;;;;;;7.50;6.80;;;25.10;99.90;;;;;;5068698;28;20519;-78
2021/07/27 07:44:26;;;;;;;7.10;6.40;;;25.10;99.90;;;;;;5075347;28;20449;-79
2021/07/27 07:46:53;;;;;;;7.47;6.87;;;25.10;99.90;;;;;;5075963;28;20449;-79
2021/07/27 07:49:21;;;;;;;6.77;6.23;;;25.00;99.90;;;;;;5074372;28;20438;-78
2021/07/27 07:51:48;;;;;;;7.47;6.87;;;24.90;99.90;;;;;;5065294;28;20446;-78
2021/07/27 07:54:15;;;;;;;7.90;7.20;;;24.90;99.90;;;;;;5056256;28;20807;-79
2021/07/27 07:56:42;;;;;;;8.40;7.60;;;24.80;99.90;;;;;;5055742;28;20449;-78
2021/07/27 07:59:09;;;;;;;7.53;6.93;;;24.90;99.90;;;;;;5071019;28;20490;-79
2021/07/27 08:01:35;;;;;;;6.63;6.10;;;24.80;99.90;;;;;;5076163;28;20998;-79
2021/07/27 08:04:02;;;;;;;7.03;6.43;;;24.80;99.90;;;;;;5076250;28;20456;-78
2021/07/27 08:06:30;;;;;;;8.40;7.27;;;24.80;99.90;;;;;;5070310;28;20464;-79
2021/07/27 08:08:57;;;;;;;7.30;6.60;;;24.70;99.90;;;;;;5075486;28;20481;-79
2021/07/27 08:11:24;;;;;;;7.60;7.00;;;24.70;99.90;;;;;;5074825;28;20471;-79
2021/07/27 08:13:52;;;;;;;8.23;7.53;;;24.60;99.90;;;;;;5071536;28;20457;-78
2021/07/27 08:16:20;;;;;;;7.80;7.10;;;24.60;99.90;;;;;;5055792;28;20845;-79
2021/07/27 08:18:47;;;;;;;9.30;6.93;;;24.80;99.90;;;;;;5055258;28;20454;-78
2021/07/27 08:21:14;;;;;;;8.07;7.33;;;24.70;99.90;;;;;;5055916;28;20961;-79
2021/07/27 08:23:45;;;;;;;7.57;6.40;;;24.90;99.90;;;;;;5055589;28;20449;-79
2021/07/27 08:26:12;;;;;;;7.60;7.00;;;25.00;99.90;;;;;;5054951;28;20445;-79
2021/07/27 08:28:39;;;;;;;7.43;6.73;;;25.00;99.90;;;;;;5056040;28;20539;-79
2021/07/27 08:31:06;;;;;;;7.57;6.97;;;25.00;99.90;;;;;;5067794;28;20441;-78
2021/07/27 08:33:33;;;;;;;7.47;6.87;;;25.00;99.90;;;;;;5055607;28;20443;-79
2021/07/27 08:35:59;;;;;;;7.23;6.63;;;25.00;99.90;;;;;;5055285;28;20454;-78
2021/07/27 08:38:26;;;;;;;6.40;5.90;;;25.00;99.90;;;;;;5054796;28;20457;-79
2021/07/27 08:40:57;;;;;;;9.30;6.83;;;25.00;99.90;;;;;;5068079;28;20452;-79
2021/07/27 08:43:24;;;;;;;6.83;6.23;;;25.00;99.90;;;;;;5070856;28;20448;-78
2021/07/27 08:45:52;;;;;;;7.70;7.00;;;24.90;99.90;;;;;;5056030;28;20934;-79
2021/07/27 08:48:19;;;;;;;6.87;6.37;;;24.90;99.90;;;;;;5055191;28;20803;-78
2021/07/27 08:50:46;;;;;;;8.10;7.47;;;24.90;99.90;;;;;;5064952;28;20434;-78
2021/07/27 08:53:13;;;;;;;7.47;6.87;;;24.80;99.90;;;;;;5060154;28;20852;-79
2021/07/27 08:55:41;;;;;;;5.37;4.97;;;24.80;99.90;;;;;;5059053;28;20452;-79
2021/07/27 08:58:09;;;;;;;6.43;5.93;;;24.80;99.90;;;;;;5054344;28;20473;-78
2021/07/27 09:00:36;;;;;;;6.27;5.70;;;24.90;99.90;;;;;;5052809;28;20806;-79
2021/07/27 09:03:09;;;;;;;6.47;5.77;;;24.90;99.90;;;;;;5054243;28;20481;-79
2021/07/27 09:05:36;;;;;;;7.10;6.27;;;24.90;99.90;;;;;;5053579;28;20525;-80
2021/07/27 09:08:04;;;;;;;7.00;6.37;;;25.00;99.90;;;;;;5055576;28;20450;-80
2021/07/27 09:10:31;;;;;;;6.00;5.50;;;25.00;99.90;;;;;;5055021;28;20454;-79
2021/07/27 09:13:00;;;;;;;6.90;6.23;;;25.10;99.90;;;;;;5048604;28;20454;-79
2021/07/27 09:15:30;;;;;;;7.23;6.57;;;25.10;99.90;;;;;;5047895;28;20900;-80
2021/07/27 09:17:59;;;;;;;6.57;6.00;;;25.00;99.90;;;;;;5055358;28;20430;-78
2021/07/27 09:20:35;;;;;;;6.20;5.73;;;25.00;99.90;;;;;;5055861;28;20446;-79
2021/07/27 09:23:02;;;;;;;7.63;6.93;;;25.00;99.90;;;;;;5054950;28;20468;-79
2021/07/27 09:25:31;;;;;;;6.03;5.53;;;25.00;99.90;;;;;;5069897;28;20480;-79
2021/07/27 09:28:03;;;;;;;6.90;6.30;;;25.10;99.90;;;;;;5066228;28;20489;-78
2021/07/27 09:30:31;;;;;;;5.80;5.30;;;25.10;99.90;;;;;;5055161;28;20454;-79
2021/07/27 09:32:58;;;;;;;6.60;6.00;;;25.20;99.90;;;;;;5051358;28;20468;-78
2021/07/27 09:35:25;;;;;;;7.33;6.53;;;25.30;99.90;;;;;;5055049;28;20477;-79
2021/07/27 09:38:09;;;;;;;6.47;5.97;;;25.40;99.90;;;;;;5056228;28;20446;-79
2021/07/27 09:40:38;;;;;;;6.07;5.50;;;25.40;99.90;;;;;;5052968;28;20778;-79
2021/07/27 09:43:05;;;;;;;6.63;6.03;;;25.40;99.90;;;;;;5054402;28;20495;-78
2021/07/27 09:45:34;;;;;;;6.57;5.97;;;25.40;99.90;;;;;;5063802;28;20441;-79
2021/07/27 09:48:02;;;;;;;6.30;5.70;;;25.40;99.90;;;;;;5067459;28;20829;-78
2021/07/27 09:50:28;;;;;;;7.83;6.43;;;25.40;99.90;;;;;;5057762;28;20453;-79
2021/07/27 09:52:55;;;;;;;6.80;6.17;;;25.40;99.90;;;;;;5055180;28;20461;-79
2021/07/27 09:55:23;;;;;;;6.67;6.07;;;25.40;99.90;;;;;;5056954;28;20453;-79
2021/07/27 09:57:50;;;;;;;8.20;5.77;;;25.40;99.90;;;;;;5060520;28;20445;-79
2021/07/27 10:00:17;;;;;;;6.53;5.93;;;25.50;99.90;;;;;;5069375;28;20544;-78
2021/07/27 10:02:48;;;;;;;6.20;5.70;;;25.40;99.90;;;;;;5063879;28;20474;-79
2021/07/27 10:05:22;;;;;;;5.97;5.57;;;25.40;99.90;;;;;;5064747;28;21137;-79
2021/07/27 10:07:59;;;;;;;9.60;6.33;;;25.40;99.90;;;;;;5060820;28;21204;-79
2021/07/27 10:10:37;;;;;;;7.03;6.43;;;25.50;99.90;;;;;;5056814;28;20446;-78
2021/07/27 10:13:11;;;;;;;6.30;5.80;;;25.50;99.90;;;;;;5057283;28;20934;-78
2021/07/27 10:15:42;;;;;;;8.77;6.30;;;25.50;99.90;;;;;;5068740;28;20442;-79
2021/07/27 10:18:11;;;;;;;7.00;6.30;;;25.50;99.90;;;;;;5078156;28;20925;-79
2021/07/27 10:20:38;;;;;;;7.13;6.53;;;25.50;99.90;;;;;;5063253;28;20814;-78
2021/07/27 10:23:16;;;;;;;6.23;5.63;;;25.60;99.90;;;;;;5060430;28;20492;-78
2021/07/27 10:25:54;;;;;;;6.53;5.93;;;25.60;99.90;;;;;;5055870;28;21146;-78
2021/07/27 10:28:25;;;;;;;6.70;6.20;;;25.70;99.90;;;;;;5057018;28;20513;-78
2021/07/27 10:31:06;;;;;;;6.70;5.63;;;25.70;99.90;;;;;;5057275;28;20450;-78
2021/07/27 10:33:36;;;;;;;6.07;5.47;;;25.70;99.90;;;;;;5056102;28;20448;-78
2021/07/27 10:36:03;;;;;;;6.80;5.63;;;25.70;99.90;;;;;;5057062;28;20996;-78
2021/07/27 10:38:41;;;;;;;8.47;7.67;;;25.80;99.90;;;;;;5061044;28;20833;-78
2021/07/27 10:41:15;;;;;;;6.30;5.70;;;25.80;99.90;;;;;;5056070;28;20474;-78
2021/07/27 10:43:42;;;;;;;6.67;6.07;;;25.80;99.90;;;;;;5055605;28;20481;-79
2021/07/27 10:46:10;;;;;;;6.03;5.53;;;25.80;99.90;;;;;;5057033;28;20809;-78
2021/07/27 10:48:40;;;;;;;6.50;5.90;;;25.90;99.90;;;;;;5068279;28;20448;-78
2021/07/27 10:51:07;;;;;;;6.17;5.60;;;25.90;99.90;;;;;;5071866;28;20453;-78
2021/07/27 10:53:35;;;;;;;5.80;5.30;;;25.80;99.90;;;;;;5056578;28;20438;-78
2021/07/27 10:56:03;;;;;;;6.60;6.10;;;25.80;99.90;;;;;;5044099;28;20453;-78
2021/07/27 10:58:31;;;;;;;5.53;5.03;;;25.80;99.90;;;;;;5057396;28;20500;-78
2021/07/27 11:01:08;;;;;;;7.53;6.70;;;25.70;99.90;;;;;;5057871;28;20497;-78
2021/07/27 11:03:35;;;;;;;6.20;5.60;;;25.70;99.90;;;;;;5057372;28;20894;-78
2021/07/27 11:06:04;;;;;;;6.00;5.40;;;25.70;99.90;;;;;;5057611;28;20790;-78
2021/07/27 11:08:30;;;;;;;6.47;5.97;;;25.70;99.90;;;;;;5060373;28;20445;-78
2021/07/27 11:11:08;;;;;;;7.30;6.60;;;25.70;99.90;;;;;;5057700;28;20457;-78
2021/07/27 11:13:35;;;;;;;6.77;6.20;;;25.80;99.90;;;;;;5057049;28;20433;-78
2021/07/27 11:16:03;;;;;;;5.53;5.10;;;25.80;99.90;;;;;;5057271;28;20446;-78
2021/07/27 11:18:30;;;;;;;7.40;6.67;;;25.80;99.90;;;;;;5046772;28;20849;-78
2021/07/27 11:20:58;;;;;;;6.37;5.87;;;25.80;99.90;;;;;;5056239;28;20463;-78
2021/07/27 11:23:32;;;;;;;8.20;5.80;;;25.80;99.90;;;;;;5055996;28;20528;-78
2021/07/27 11:25:59;;;;;;;7.47;6.07;;;25.80;99.90;;;;;;5054842;28;20449;-78
2021/07/27 11:28:34;;;;;;;6.53;5.93;;;25.90;99.90;;;;;;5054066;28;20488;-78
2021/07/27 11:31:01;;;;;;;6.13;5.60;;;25.90;99.90;;;;;;5052907;28;20454;-78
2021/07/27 11:33:27;;;;;;;6.33;5.70;;;25.90;99.90;;;;;;5056818;28;20511;-78
2021/07/27 11:35:56;;;;;;;7.07;6.37;;;25.90;99.90;;;;;;5068354;28;20926;-78
2021/07/27 11:38:24;;;;;;;6.20;5.60;;;26.00;99.90;;;;;;5046826;28;20955;-78
2021/07/27 11:41:04;;;;;;;6.40;5.90;;;26.00;99.90;;;;;;5043702;28;20458;-78
2021/07/27 11:43:33;;;;;;;5.97;5.47;;;25.90;99.90;;;;;;5056594;28;20497;-78
2021/07/27 11:46:06;;;;;;;6.80;6.07;;;26.00;99.90;;;;;;5053325;28;20508;-78
2021/07/27 11:48:33;;;;;;;6.30;5.73;;;26.00;99.90;;;;;;5055223;28;20474;-78
2021/07/27 11:50:59;;;;;;;6.33;5.83;;;26.00;99.90;;;;;;5052506;28;20450;-78
2021/07/27 11:53:28;;;;;;;6.60;6.00;;;26.00;99.90;;;;;;5063777;28;20449;-78
2021/07/27 11:55:56;;;;;;;5.97;5.47;;;26.00;99.90;;;;;;5056118;28;20446;-78
2021/07/27 11:58:27;;;;;;;7.33;6.67;;;26.00;99.90;;;;;;5056278;28;20799;-78
2021/07/27 12:00:58;;;;;;;11.50;7.40;;;26.00;99.90;;;;;;5074318;28;20798;-79
2021/07/27 12:03:25;;;;;;;22.20;8.20;;;25.90;99.90;;;;;;5068938;28;20466;-78
2021/07/27 12:05:55;;;;;;;13.77;6.30;;;26.00;99.90;;;;;;5056194;28;20507;-78
2021/07/27 12:08:22;;;;;;;9.53;6.23;;;26.00;99.90;;;;;;5067426;28;20456;-78
2021/07/27 12:10:48;;;;;;;11.37;6.27;;;25.90;99.90;;;;;;5063261;28;20456;-79
2021/07/27 12:13:17;;;;;;;11.83;7.30;;;25.90;99.90;;;;;;5062142;28;20440;-78
2021/07/27 12:15:46;;;;;;;8.10;7.10;;;25.90;99.90;;;;;;5057679;28;21009;-78
2021/07/27 12:18:14;;;;;;;9.23;8.30;;;25.80;99.90;;;;;;5050043;28;20473;-79
2021/07/27 12:20:41;;;;;;;6.57;5.90;;;25.80;99.90;;;;;;5047989;28;20458;-79
2021/07/27 12:23:07;;;;;;;8.60;7.50;;;25.70;99.90;;;;;;5055028;28;20474;-78
2021/07/27 12:25:35;;;;;;;9.30;7.47;;;25.70;99.90;;;;;;5055272;28;20504;-78
2021/07/27 12:28:02;;;;;;;8.30;6.57;;;25.70;99.90;;;;;;5054896;28;20505;-79
2021/07/27 12:30:30;;;;;;;8.50;7.57;;;25.70;99.90;;;;;;5073542;28;20449;-79
2021/07/27 12:32:58;;;;;;;10.40;7.83;;;25.70;99.90;;;;;;5064764;28;20534;-78
2021/07/27 12:35:24;;;;;;;8.43;7.50;;;25.70;99.90;;;;;;5059469;28;20450;-78
2021/07/27 12:37:51;;;;;;;6.80;6.17;;;25.70;99.90;;;;;;5055295;28;20462;-79
2021/07/27 12:40:18;;;;;;;7.57;6.40;;;25.70;99.90;;;;;;5058653;28;20540;-79
2021/07/27 12:42:44;;;;;;;7.13;6.43;;;25.70;99.90;;;;;;5073578;28;20469;-79
2021/07/27 12:45:12;;;;;;;6.10;5.60;;;25.60;99.90;;;;;;5071717;28;20434;-78
2021/07/27 12:47:40;;;;;;;7.50;6.80;;;25.60;99.90;;;;;;5055587;28;20454;-78
2021/07/27 12:50:08;;;;;;;8.97;7.87;;;25.70;99.90;;;;;;5053318;28;20462;-79
2021/07/27 12:52:35;;;;;;;7.07;6.37;;;25.60;99.90;;;;;;5057618;28;20445;-80
2021/07/27 12:55:02;;;;;;;7.77;7.07;;;25.60;99.90;;;;;;5057620;28;20493;-81
2021/07/27 12:57:29;;;;;;;7.90;7.10;;;25.50;99.90;;;;;;5068182;28;20453;-79
2021/07/27 12:59:56;;;;;;;7.67;6.97;;;25.50;99.90;;;;;;5071739;28;20460;-80
2021/07/27 13:02:23;;;;;;;7.60;6.90;;;25.50;99.90;;;;;;5054688;28;20434;-81
2021/07/27 13:04:52;;;;;;;6.73;6.17;;;25.50;99.90;;;;;;5056041;28;20524;-81
2021/07/27 13:07:18;;;;;;;7.77;6.90;;;25.50;99.90;;;;;;5057627;28;20821;-79